KL35 Airport Information

Runway Information
Runway 08 Length 5850 ft width 75 ft
Elevation 6750 ft Threshold 370 ft Heading 90
Runway 26 Length 5850 ft Width 75 ft
Elevation 6751 ft Threshold 600 ft Heading 270
Airport Frequencies
Type AWOS Name AWOS 3 Frequency 135.925 MHZ
Type CNTR Name LOS ANGELE Frequency 126.35 MHZ
Type UNIC Name CTAF/UNICO Frequency 122.725 MHZ
Airport Navaids
Airport Weather Information & NOTAM
ADDS - METARS form results

(0153 UTC 19 January 2018)
 
METAR text: KL35 190135Z AUTO 00000KT 10SM CLR 07/M02 A3019 RMK AO2
Conditions at: KL35 (BIG BEAR CITY , CA, US) observed 0135 UTC 19 January 2018
Temperature: 7.0°C (45°F)
Dewpoint: -2.0°C (28°F) [RH = 53%]
Pressure (altimeter): 30.19 inches Hg (1022.4 mb)
Winds: calm
Visibility: 10 or more miles (16+ km)
Ceiling: at least 12,000 feet AGL
Clouds: sky clear below 12,000 feet AGL
Weather: automated observation with no human augmentation;
there may or may not be significant weather present at this time

METAR text: KL35 190115Z AUTO 00000KT 10SM CLR 08/M03 A3019 RMK AO2
Conditions at: KL35 (BIG BEAR CITY , CA, US) observed 0115 UTC 19 January 2018
Temperature: 8.0°C (46°F)
Dewpoint: -3.0°C (27°F) [RH = 46%]
Pressure (altimeter): 30.19 inches Hg (1022.4 mb)
Winds: calm
Visibility: 10 or more miles (16+ km)
Ceiling: at least 12,000 feet AGL
Clouds: sky clear below 12,000 feet AGL
Weather: automated observation with no human augmentation;
there may or may not be significant weather present at this time

METAR text: KL35 190055Z AUTO 00000KT 10SM CLR 09/M03 A3020 RMK AO2
Conditions at: KL35 (BIG BEAR CITY , CA, US) observed 0055 UTC 19 January 2018
Temperature: 9.0°C (48°F)
Dewpoint: -3.0°C (27°F) [RH = 43%]
Pressure (altimeter): 30.20 inches Hg (1022.8 mb)
Winds: calm
Visibility: 10 or more miles (16+ km)
Ceiling: at least 12,000 feet AGL
Clouds: sky clear below 12,000 feet AGL
Weather: automated observation with no human augmentation;
there may or may not be significant weather present at this time